sensor_id;sensor_type;location;lat;lon;timestamp;pressure;altitude;pressure_sealevel;temperature
68127;BMP180;54931;52.098;21.006;2024-01-15T00:00:25;98085.20;;;0.10
68127;BMP180;54931;52.098;21.006;2024-01-15T00:03:13;98085.00;;;0.10
68127;BMP180;54931;52.098;21.006;2024-01-15T00:05:41;98077.60;;;0.10
68127;BMP180;54931;52.098;21.006;2024-01-15T00:08:09;98066.20;;;0.10
68127;BMP180;54931;52.098;21.006;2024-01-15T00:10:37;98063.40;;;0.10
68127;BMP180;54931;52.098;21.006;2024-01-15T00:13:06;98062.60;;;0.10
68127;BMP180;54931;52.098;21.006;2024-01-15T00:15:33;98059.00;;;0.10
68127;BMP180;54931;52.098;21.006;2024-01-15T00:18:01;98054.80;;;0.12
68127;BMP180;54931;52.098;21.006;2024-01-15T00:20:28;98049.40;;;0.12
68127;BMP180;54931;52.098;21.006;2024-01-15T00:22:56;98042.80;;;0.10
68127;BMP180;54931;52.098;21.006;2024-01-15T00:25:23;98029.60;;;0.14
68127;BMP180;54931;52.098;21.006;2024-01-15T00:27:51;98032.60;;;0.14
68127;BMP180;54931;52.098;21.006;2024-01-15T00:30:19;98024.00;;;0.12
68127;BMP180;54931;52.098;21.006;2024-01-15T00:32:46;98025.80;;;0.12
68127;BMP180;54931;52.098;21.006;2024-01-15T00:35:14;98017.20;;;0.16
68127;BMP180;54931;52.098;21.006;2024-01-15T00:37:42;98019.80;;;0.20
68127;BMP180;54931;52.098;21.006;2024-01-15T00:40:09;98012.40;;;0.12
68127;BMP180;54931;52.098;21.006;2024-01-15T00:42:37;98011.00;;;0.10
68127;BMP180;54931;52.098;21.006;2024-01-15T00:45:05;98005.20;;;0.12
68127;BMP180;54931;52.098;21.006;2024-01-15T00:47:35;97998.40;;;0.10
68127;BMP180;54931;52.098;21.006;2024-01-15T00:50:02;97998.60;;;0.12
68127;BMP180;54931;52.098;21.006;2024-01-15T00:52:30;97999.60;;;0.10
68127;BMP180;54931;52.098;21.006;2024-01-15T00:54:58;97988.80;;;0.12
68127;BMP180;54931;52.098;21.006;2024-01-15T00:57:26;97990.80;;;0.10
68127;BMP180;54931;52.098;21.006;2024-01-15T00:59:54;97983.00;;;0.10
68127;BMP180;54931;52.098;21.006;2024-01-15T01:02:22;97981.20;;;0.10
68127;BMP180;54931;52.098;21.006;2024-01-15T01:04:49;97975.80;;;0.10
68127;BMP180;54931;52.098;21.006;2024-01-15T01:07:17;97977.00;;;0.10
68127;BMP180;54931;52.098;21.006;2024-01-15T01:09:44;97975.20;;;0.10
68127;BMP180;54931;52.098;21.006;2024-01-15T01:12:12;97963.40;;;0.10
68127;BMP180;54931;52.098;21.006;2024-01-15T01:14:41;97962.40;;;0.00
68127;BMP180;54931;52.098;21.006;2024-01-15T01:17:08;97956.40;;;0.00
68127;BMP180;54931;52.098;21.006;2024-01-15T01:19:36;97957.20;;;0.00
68127;BMP180;54931;52.098;21.006;2024-01-15T01:22:04;97953.60;;;-0.02
68127;BMP180;54931;52.098;21.006;2024-01-15T01:24:33;97954.40;;;-0.10
68127;BMP180;54931;52.098;21.006;2024-01-15T01:27:00;97960.80;;;-0.10
68127;BMP180;54931;52.098;21.006;2024-01-15T01:29:28;97963.40;;;-0.10
68127;BMP180;54931;52.098;21.006;2024-01-15T01:31:55;97958.60;;;-0.10
68127;BMP180;54931;52.098;21.006;2024-01-15T01:34:24;97954.40;;;-0.10
68127;BMP180;54931;52.098;21.006;2024-01-15T01:36:51;97945.80;;;-0.10
68127;BMP180;54931;52.098;21.006;2024-01-15T01:39:19;97944.00;;;-0.10
68127;BMP180;54931;52.098;21.006;2024-01-15T01:41:46;97943.40;;;-0.10
68127;BMP180;54931;52.098;21.006;2024-01-15T01:44:14;97935.60;;;-0.10
68127;BMP180;54931;52.098;21.006;2024-01-15T01:46:45;97936.00;;;-0.10
68127;BMP180;54931;52.098;21.006;2024-01-15T01:49:14;97938.60;;;-0.10
68127;BMP180;54931;52.098;21.006;2024-01-15T01:51:41;97930.80;;;-0.10
68127;BMP180;54931;52.098;21.006;2024-01-15T01:54:09;97928.40;;;-0.10
68127;BMP180;54931;52.098;21.006;2024-01-15T01:56:41;97915.40;;;-0.10
68127;BMP180;54931;52.098;21.006;2024-01-15T01:59:11;97913.00;;;-0.04
68127;BMP180;54931;52.098;21.006;2024-01-15T02:01:39;97908.20;;;-0.02
68127;BMP180;54931;52.098;21.006;2024-01-15T02:04:09;97911.20;;;-0.02
68127;BMP180;54931;52.098;21.006;2024-01-15T02:06:36;97911.60;;;0.00
68127;BMP180;54931;52.098;21.006;2024-01-15T02:09:04;97910.20;;;0.00
68127;BMP180;54931;52.098;21.006;2024-01-15T02:11:36;97905.60;;;0.00
68127;BMP180;54931;52.098;21.006;2024-01-15T02:14:05;97900.80;;;0.00
68127;BMP180;54931;52.098;21.006;2024-01-15T02:16:33;97899.40;;;0.00
68127;BMP180;54931;52.098;21.006;2024-01-15T02:19:00;97895.20;;;-0.02
68127;BMP180;54931;52.098;21.006;2024-01-15T02:21:28;97896.80;;;0.00
68127;BMP180;54931;52.098;21.006;2024-01-15T02:23:56;97889.20;;;0.00
68127;BMP180;54931;52.098;21.006;2024-01-15T02:26:24;97884.20;;;-0.02
68127;BMP180;54931;52.098;21.006;2024-01-15T02:28:52;97876.60;;;0.00
68127;BMP180;54931;52.098;21.006;2024-01-15T02:31:19;97878.40;;;0.00
68127;BMP180;54931;52.098;21.006;2024-01-15T02:33:47;97872.20;;;-0.02
68127;BMP180;54931;52.098;21.006;2024-01-15T02:36:16;97871.40;;;0.00
68127;BMP180;54931;52.098;21.006;2024-01-15T02:38:43;97864.40;;;0.00
68127;BMP180;54931;52.098;21.006;2024-01-15T02:41:10;97860.20;;;0.00
68127;BMP180;54931;52.098;21.006;2024-01-15T02:43:41;97857.20;;;0.00
68127;BMP180;54931;52.098;21.006;2024-01-15T02:46:09;97860.40;;;0.00
68127;BMP180;54931;52.098;21.006;2024-01-15T02:48:36;97855.40;;;0.00
68127;BMP180;54931;52.098;21.006;2024-01-15T02:51:04;97853.80;;;0.00
68127;BMP180;54931;52.098;21.006;2024-01-15T02:53:31;97856.20;;;0.00
68127;BMP180;54931;52.098;21.006;2024-01-15T02:55:59;97845.20;;;0.00
68127;BMP180;54931;52.098;21.006;2024-01-15T02:58:26;97841.80;;;0.00
68127;BMP180;54931;52.098;21.006;2024-01-15T03:00:54;97839.80;;;0.00
68127;BMP180;54931;52.098;21.006;2024-01-15T03:03:21;97833.20;;;0.00
68127;BMP180;54931;52.098;21.006;2024-01-15T03:05:49;97827.20;;;0.00
68127;BMP180;54931;52.098;21.006;2024-01-15T03:08:17;97825.60;;;0.00
68127;BMP180;54931;52.098;21.006;2024-01-15T03:10:44;97818.00;;;-0.06
68127;BMP180;54931;52.098;21.006;2024-01-15T03:13:12;97811.20;;;-0.10
68127;BMP180;54931;52.098;21.006;2024-01-15T03:15:40;97808.20;;;-0.08
68127;BMP180;54931;52.098;21.006;2024-01-15T03:18:07;97799.20;;;-0.10
68127;BMP180;54931;52.098;21.006;2024-01-15T03:20:35;97805.40;;;-0.10
68127;BMP180;54931;52.098;21.006;2024-01-15T03:23:03;97800.20;;;-0.10
68127;BMP180;54931;52.098;21.006;2024-01-15T03:25:30;97795.40;;;-0.14
68127;BMP180;54931;52.098;21.006;2024-01-15T03:27:58;97791.60;;;-0.20
68127;BMP180;54931;52.098;21.006;2024-01-15T03:30:26;97790.40;;;-0.20
68127;BMP180;54931;52.098;21.006;2024-01-15T03:32:53;97790.00;;;-0.20
68127;BMP180;54931;52.098;21.006;2024-01-15T03:35:21;97786.80;;;-0.20
68127;BMP180;54931;52.098;21.006;2024-01-15T03:37:49;97780.80;;;-0.26
68127;BMP180;54931;52.098;21.006;2024-01-15T03:40:17;97785.20;;;-0.28
68127;BMP180;54931;52.098;21.006;2024-01-15T03:42:47;97788.20;;;-0.28
68127;BMP180;54931;52.098;21.006;2024-01-15T03:45:14;97780.40;;;-0.30
68127;BMP180;54931;52.098;21.006;2024-01-15T03:47:42;97776.60;;;-0.30
68127;BMP180;54931;52.098;21.006;2024-01-15T03:50:10;97774.80;;;-0.30
68127;BMP180;54931;52.098;21.006;2024-01-15T03:52:40;97771.20;;;-0.30
68127;BMP180;54931;52.098;21.006;2024-01-15T03:55:08;97761.20;;;-0.30
68127;BMP180;54931;52.098;21.006;2024-01-15T03:57:35;97759.60;;;-0.30
68127;BMP180;54931;52.098;21.006;2024-01-15T04:00:05;97755.80;;;-0.30
68127;BMP180;54931;52.098;21.006;2024-01-15T04:02:34;97754.80;;;-0.30
68127;BMP180;54931;52.098;21.006;2024-01-15T04:05:02;97755.60;;;-0.30
68127;BMP180;54931;52.098;21.006;2024-01-15T04:07:30;97748.40;;;-0.30
68127;BMP180;54931;52.098;21.006;2024-01-15T04:09:58;97750.00;;;-0.30
68127;BMP180;54931;52.098;21.006;2024-01-15T04:12:26;97740.40;;;-0.30
68127;BMP180;54931;52.098;21.006;2024-01-15T04:14:54;97731.20;;;-0.30
68127;BMP180;54931;52.098;21.006;2024-01-15T04:17:21;97721.20;;;-0.28
68127;BMP180;54931;52.098;21.006;2024-01-15T04:19:49;97721.80;;;-0.26
68127;BMP180;54931;52.098;21.006;2024-01-15T04:22:16;97715.40;;;-0.22
68127;BMP180;54931;52.098;21.006;2024-01-15T04:24:44;97708.20;;;-0.20
68127;BMP180;54931;52.098;21.006;2024-01-15T04:27:12;97707.60;;;-0.20
68127;BMP180;54931;52.098;21.006;2024-01-15T04:29:40;97705.20;;;-0.20
68127;BMP180;54931;52.098;21.006;2024-01-15T04:32:08;97697.60;;;-0.20
68127;BMP180;54931;52.098;21.006;2024-01-15T04:34:35;97700.80;;;-0.20
68127;BMP180;54931;52.098;21.006;2024-01-15T04:37:03;97690.20;;;-0.20
68127;BMP180;54931;52.098;21.006;2024-01-15T04:39:30;97683.20;;;-0.20
68127;BMP180;54931;52.098;21.006;2024-01-15T04:41:58;97680.20;;;-0.20
68127;BMP180;54931;52.098;21.006;2024-01-15T04:44:25;97679.00;;;-0.20
68127;BMP180;54931;52.098;21.006;2024-01-15T04:46:53;97680.00;;;-0.20
68127;BMP180;54931;52.098;21.006;2024-01-15T04:49:20;97676.00;;;-0.20
68127;BMP180;54931;52.098;21.006;2024-01-15T04:51:48;97678.60;;;-0.20
68127;BMP180;54931;52.098;21.006;2024-01-15T04:54:15;97681.00;;;-0.20
68127;BMP180;54931;52.098;21.006;2024-01-15T04:56:44;97678.00;;;-0.20
68127;BMP180;54931;52.098;21.006;2024-01-15T04:59:13;97675.20;;;-0.20
68127;BMP180;54931;52.098;21.006;2024-01-15T05:01:41;97672.00;;;-0.20
68127;BMP180;54931;52.098;21.006;2024-01-15T05:04:09;97673.40;;;-0.20
68127;BMP180;54931;52.098;21.006;2024-01-15T05:06:36;97668.60;;;-0.20
68127;BMP180;54931;52.098;21.006;2024-01-15T05:09:07;97657.40;;;-0.20
68127;BMP180;54931;52.098;21.006;2024-01-15T05:11:34;97663.60;;;-0.20
68127;BMP180;54931;52.098;21.006;2024-01-15T05:14:02;97662.00;;;-0.20
68127;BMP180;54931;52.098;21.006;2024-01-15T05:16:30;97666.80;;;-0.20
68127;BMP180;54931;52.098;21.006;2024-01-15T05:18:57;97660.20;;;-0.18
68127;BMP180;54931;52.098;21.006;2024-01-15T05:21:25;97660.00;;;-0.20
68127;BMP180;54931;52.098;21.006;2024-01-15T05:23:52;97661.60;;;-0.20
68127;BMP180;54931;52.098;21.006;2024-01-15T05:26:19;97657.00;;;-0.20
68127;BMP180;54931;52.098;21.006;2024-01-15T05:28:47;97655.80;;;-0.20
68127;BMP180;54931;52.098;21.006;2024-01-15T05:31:15;97653.60;;;-0.18
68127;BMP180;54931;52.098;21.006;2024-01-15T05:33:42;97654.60;;;-0.12
68127;BMP180;54931;52.098;21.006;2024-01-15T05:36:10;97650.40;;;-0.14
68127;BMP180;54931;52.098;21.006;2024-01-15T05:38:38;97654.40;;;-0.10
68127;BMP180;54931;52.098;21.006;2024-01-15T05:41:07;97657.60;;;-0.10
68127;BMP180;54931;52.098;21.006;2024-01-15T05:43:34;97649.60;;;-0.10
68127;BMP180;54931;52.098;21.006;2024-01-15T05:46:02;97646.20;;;-0.10
68127;BMP180;54931;52.098;21.006;2024-01-15T05:48:30;97651.80;;;-0.10
68127;BMP180;54931;52.098;21.006;2024-01-15T05:50:57;97656.20;;;-0.08
68127;BMP180;54931;52.098;21.006;2024-01-15T05:53:25;97656.00;;;-0.02
68127;BMP180;54931;52.098;21.006;2024-01-15T05:55:52;97647.20;;;0.00
68127;BMP180;54931;52.098;21.006;2024-01-15T05:58:21;97648.60;;;0.00
68127;BMP180;54931;52.098;21.006;2024-01-15T06:00:48;97645.80;;;0.00
68127;BMP180;54931;52.098;21.006;2024-01-15T06:03:17;97651.00;;;0.00
68127;BMP180;54931;52.098;21.006;2024-01-15T06:05:45;97645.80;;;0.00
68127;BMP180;54931;52.098;21.006;2024-01-15T06:08:12;97639.20;;;0.00
68127;BMP180;54931;52.098;21.006;2024-01-15T06:10:42;97642.40;;;0.00
68127;BMP180;54931;52.098;21.006;2024-01-15T06:13:10;97639.00;;;0.00
68127;BMP180;54931;52.098;21.006;2024-01-15T06:15:37;97634.60;;;0.00
68127;BMP180;54931;52.098;21.006;2024-01-15T06:18:05;97631.20;;;0.02
68127;BMP180;54931;52.098;21.006;2024-01-15T06:20:33;97629.60;;;0.02
68127;BMP180;54931;52.098;21.006;2024-01-15T06:23:04;97632.60;;;0.04
68127;BMP180;54931;52.098;21.006;2024-01-15T06:25:31;97616.80;;;0.02
68127;BMP180;54931;52.098;21.006;2024-01-15T06:27:59;97612.20;;;0.00
68127;BMP180;54931;52.098;21.006;2024-01-15T06:30:27;97614.20;;;0.00
68127;BMP180;54931;52.098;21.006;2024-01-15T06:32:55;97619.00;;;0.00
68127;BMP180;54931;52.098;21.006;2024-01-15T06:35:22;97612.20;;;0.00
68127;BMP180;54931;52.098;21.006;2024-01-15T06:37:50;97602.20;;;0.00
68127;BMP180;54931;52.098;21.006;2024-01-15T06:40:19;97601.20;;;0.00
68127;BMP180;54931;52.098;21.006;2024-01-15T06:42:47;97601.00;;;0.00
68127;BMP180;54931;52.098;21.006;2024-01-15T06:45:15;97603.00;;;0.00
68127;BMP180;54931;52.098;21.006;2024-01-15T06:47:42;97601.80;;;0.00
68127;BMP180;54931;52.098;21.006;2024-01-15T06:50:10;97602.40;;;0.00
68127;BMP180;54931;52.098;21.006;2024-01-15T06:52:38;97597.20;;;0.10
68127;BMP180;54931;52.098;21.006;2024-01-15T06:55:07;97595.00;;;0.10
68127;BMP180;54931;52.098;21.006;2024-01-15T06:57:35;97600.60;;;0.10
68127;BMP180;54931;52.098;21.006;2024-01-15T07:00:04;97603.40;;;0.10
68127;BMP180;54931;52.098;21.006;2024-01-15T07:02:36;97603.40;;;0.10
68127;BMP180;54931;52.098;21.006;2024-01-15T07:05:06;97599.60;;;0.10
68127;BMP180;54931;52.098;21.006;2024-01-15T07:07:34;97605.00;;;0.16
68127;BMP180;54931;52.098;21.006;2024-01-15T07:10:02;97606.80;;;0.20
68127;BMP180;54931;52.098;21.006;2024-01-15T07:12:31;97606.40;;;0.20
68127;BMP180;54931;52.098;21.006;2024-01-15T07:14:58;97606.20;;;0.20
68127;BMP180;54931;52.098;21.006;2024-01-15T07:17:25;97601.60;;;0.20
68127;BMP180;54931;52.098;21.006;2024-01-15T07:19:53;97610.80;;;0.20
68127;BMP180;54931;52.098;21.006;2024-01-15T07:22:21;97610.00;;;0.20
68127;BMP180;54931;52.098;21.006;2024-01-15T07:24:48;97605.40;;;0.20
68127;BMP180;54931;52.098;21.006;2024-01-15T07:27:16;97603.00;;;0.20
68127;BMP180;54931;52.098;21.006;2024-01-15T07:29:43;97606.60;;;0.20
68127;BMP180;54931;52.098;21.006;2024-01-15T07:32:11;97604.60;;;0.24
68127;BMP180;54931;52.098;21.006;2024-01-15T07:34:38;97606.80;;;0.22
68127;BMP180;54931;52.098;21.006;2024-01-15T07:37:06;97608.80;;;0.22
68127;BMP180;54931;52.098;21.006;2024-01-15T07:39:34;97603.20;;;0.20
68127;BMP180;54931;52.098;21.006;2024-01-15T07:42:02;97607.00;;;0.20
68127;BMP180;54931;52.098;21.006;2024-01-15T07:44:30;97610.20;;;0.20
68127;BMP180;54931;52.098;21.006;2024-01-15T07:46:57;97606.00;;;0.10
68127;BMP180;54931;52.098;21.006;2024-01-15T07:49:25;97607.80;;;0.10
68127;BMP180;54931;52.098;21.006;2024-01-15T07:51:53;97628.80;;;0.10
68127;BMP180;54931;52.098;21.006;2024-01-15T07:54:20;97622.00;;;0.10
68127;BMP180;54931;52.098;21.006;2024-01-15T07:56:59;97619.40;;;0.10
68127;BMP180;54931;52.098;21.006;2024-01-15T07:59:27;97615.00;;;0.20
68127;BMP180;54931;52.098;21.006;2024-01-15T08:01:55;97620.80;;;0.20
68127;BMP180;54931;52.098;21.006;2024-01-15T08:04:23;97622.00;;;0.20
68127;BMP180;54931;52.098;21.006;2024-01-15T08:06:51;97616.20;;;0.30
68127;BMP180;54931;52.098;21.006;2024-01-15T08:09:18;97615.80;;;0.30
68127;BMP180;54931;52.098;21.006;2024-01-15T08:11:46;97615.60;;;0.30
68127;BMP180;54931;52.098;21.006;2024-01-15T08:14:14;97615.20;;;0.30
68127;BMP180;54931;52.098;21.006;2024-01-15T08:16:42;97608.00;;;0.30
68127;BMP180;54931;52.098;21.006;2024-01-15T08:19:11;97615.20;;;0.24
68127;BMP180;54931;52.098;21.006;2024-01-15T08:21:39;97619.80;;;0.28
68127;BMP180;54931;52.098;21.006;2024-01-15T08:24:08;97621.20;;;0.30
68127;BMP180;54931;52.098;21.006;2024-01-15T08:26:36;97624.00;;;0.30
68127;BMP180;54931;52.098;21.006;2024-01-15T08:29:03;97622.00;;;0.30
68127;BMP180;54931;52.098;21.006;2024-01-15T08:31:31;97621.80;;;0.38
68127;BMP180;54931;52.098;21.006;2024-01-15T08:33:59;97614.60;;;0.40
68127;BMP180;54931;52.098;21.006;2024-01-15T08:36:27;97622.60;;;0.48
68127;BMP180;54931;52.098;21.006;2024-01-15T08:38:56;97617.80;;;0.50
68127;BMP180;54931;52.098;21.006;2024-01-15T08:41:24;97623.60;;;0.50
68127;BMP180;54931;52.098;21.006;2024-01-15T08:43:52;97623.60;;;0.50
68127;BMP180;54931;52.098;21.006;2024-01-15T08:46:20;97613.60;;;0.40
68127;BMP180;54931;52.098;21.006;2024-01-15T08:48:48;97618.40;;;0.30
68127;BMP180;54931;52.098;21.006;2024-01-15T08:51:16;97614.60;;;0.30
68127;BMP180;54931;52.098;21.006;2024-01-15T08:53:45;97619.80;;;0.30
68127;BMP180;54931;52.098;21.006;2024-01-15T08:56:13;97617.00;;;0.40
68127;BMP180;54931;52.098;21.006;2024-01-15T08:58:41;97615.00;;;0.40
68127;BMP180;54931;52.098;21.006;2024-01-15T09:01:09;97615.20;;;0.50
68127;BMP180;54931;52.098;21.006;2024-01-15T09:03:36;97623.00;;;0.70
68127;BMP180;54931;52.098;21.006;2024-01-15T09:06:04;97619.40;;;0.80
68127;BMP180;54931;52.098;21.006;2024-01-15T09:08:32;97622.00;;;0.80
68127;BMP180;54931;52.098;21.006;2024-01-15T09:10:59;97620.20;;;0.90
68127;BMP180;54931;52.098;21.006;2024-01-15T09:13:30;97634.60;;;1.06
68127;BMP180;54931;52.098;21.006;2024-01-15T09:15:58;97618.40;;;1.12
68127;BMP180;54931;52.098;21.006;2024-01-15T09:18:27;97627.60;;;1.30
68127;BMP180;54931;52.098;21.006;2024-01-15T09:20:55;97602.60;;;1.50
68127;BMP180;54931;52.098;21.006;2024-01-15T09:23:23;97623.80;;;1.72
68127;BMP180;54931;52.098;21.006;2024-01-15T09:25:51;97624.40;;;1.92
68127;BMP180;54931;52.098;21.006;2024-01-15T09:28:20;97611.60;;;2.20
68127;BMP180;54931;52.098;21.006;2024-01-15T09:30:47;97615.60;;;2.30
68127;BMP180;54931;52.098;21.006;2024-01-15T09:33:15;97621.20;;;2.20
68127;BMP180;54931;52.098;21.006;2024-01-15T09:35:42;97616.20;;;2.08
68127;BMP180;54931;52.098;21.006;2024-01-15T09:38:10;97614.00;;;2.00
68127;BMP180;54931;52.098;21.006;2024-01-15T09:40:40;97609.60;;;1.90
68127;BMP180;54931;52.098;21.006;2024-01-15T09:43:12;97614.60;;;1.90
68127;BMP180;54931;52.098;21.006;2024-01-15T09:45:40;97607.80;;;1.90
68127;BMP180;54931;52.098;21.006;2024-01-15T09:48:08;97614.60;;;1.90
68127;BMP180;54931;52.098;21.006;2024-01-15T09:50:36;97617.40;;;1.90
68127;BMP180;54931;52.098;21.006;2024-01-15T09:53:05;97610.60;;;1.94
68127;BMP180;54931;52.098;21.006;2024-01-15T09:55:33;97610.60;;;1.90
68127;BMP180;54931;52.098;21.006;2024-01-15T09:58:02;97607.80;;;1.88
68127;BMP180;54931;52.098;21.006;2024-01-15T10:00:30;97599.60;;;1.80
68127;BMP180;54931;52.098;21.006;2024-01-15T10:02:58;97612.00;;;1.80
68127;BMP180;54931;52.098;21.006;2024-01-15T10:05:27;97607.00;;;1.74
68127;BMP180;54931;52.098;21.006;2024-01-15T10:07:56;97598.20;;;1.76
68127;BMP180;54931;52.098;21.006;2024-01-15T10:10:25;97598.80;;;1.80
68127;BMP180;54931;52.098;21.006;2024-01-15T10:12:54;97603.80;;;1.80
68127;BMP180;54931;52.098;21.006;2024-01-15T10:15:22;97603.40;;;1.82
68127;BMP180;54931;52.098;21.006;2024-01-15T10:17:52;97603.00;;;1.88
68127;BMP180;54931;52.098;21.006;2024-01-15T10:20:20;97604.60;;;1.80
68127;BMP180;54931;52.098;21.006;2024-01-15T10:22:50;97607.40;;;1.78
68127;BMP180;54931;52.098;21.006;2024-01-15T10:25:18;97600.20;;;1.74
68127;BMP180;54931;52.098;21.006;2024-01-15T10:28:03;97604.40;;;1.80
68127;BMP180;54931;52.098;21.006;2024-01-15T10:30:32;97603.60;;;1.80
68127;BMP180;54931;52.098;21.006;2024-01-15T10:33:03;97602.60;;;1.74
68127;BMP180;54931;52.098;21.006;2024-01-15T10:35:33;97614.80;;;1.80
68127;BMP180;54931;52.098;21.006;2024-01-15T10:38:02;97614.20;;;1.72
68127;BMP180;54931;52.098;21.006;2024-01-15T10:40:30;97616.60;;;1.70
68127;BMP180;54931;52.098;21.006;2024-01-15T10:42:58;97617.60;;;1.70
68127;BMP180;54931;52.098;21.006;2024-01-15T10:45:25;97616.00;;;1.60
68127;BMP180;54931;52.098;21.006;2024-01-15T10:47:55;97614.40;;;1.58
68127;BMP180;54931;52.098;21.006;2024-01-15T10:50:29;97615.40;;;1.60
68127;BMP180;54931;52.098;21.006;2024-01-15T10:52:58;97616.60;;;1.80
68127;BMP180;54931;52.098;21.006;2024-01-15T10:55:27;97613.00;;;2.04
68127;BMP180;54931;52.098;21.006;2024-01-15T10:57:55;97615.80;;;2.42
68127;BMP180;54931;52.098;21.006;2024-01-15T11:00:24;97614.80;;;2.60
68127;BMP180;54931;52.098;21.006;2024-01-15T11:02:52;97621.40;;;2.62
68127;BMP180;54931;52.098;21.006;2024-01-15T11:05:23;97626.80;;;2.60
68127;BMP180;54931;52.098;21.006;2024-01-15T11:07:54;97614.40;;;2.30
68127;BMP180;54931;52.098;21.006;2024-01-15T11:10:46;97621.60;;;2.30
68127;BMP180;54931;52.098;21.006;2024-01-15T11:16:06;97613.20;;;2.20
68127;BMP180;54931;52.098;21.006;2024-01-15T11:19:04;97626.00;;;2.30
68127;BMP180;54931;52.098;21.006;2024-01-15T11:21:30;97622.20;;;2.30
68127;BMP180;54931;52.098;21.006;2024-01-15T11:24:02;97622.80;;;2.20
68127;BMP180;54931;52.098;21.006;2024-01-15T11:29:06;97622.60;;;2.20
68127;BMP180;54931;52.098;21.006;2024-01-15T11:34:21;97617.20;;;2.18
68127;BMP180;54931;52.098;21.006;2024-01-15T11:37:20;97611.60;;;2.14
68127;BMP180;54931;52.098;21.006;2024-01-15T11:39:52;97604.20;;;2.20
68127;BMP180;54931;52.098;21.006;2024-01-15T11:42:23;97595.20;;;2.12
68127;BMP180;54931;52.098;21.006;2024-01-15T11:44:52;97591.60;;;2.02
68127;BMP180;54931;52.098;21.006;2024-01-15T11:50:21;97595.20;;;1.90
68127;BMP180;54931;52.098;21.006;2024-01-15T11:53:01;97592.20;;;1.80
68127;BMP180;54931;52.098;21.006;2024-01-15T11:55:38;97591.60;;;1.80
68127;BMP180;54931;52.098;21.006;2024-01-15T11:58:09;97586.20;;;1.70
68127;BMP180;54931;52.098;21.006;2024-01-15T12:00:48;97589.80;;;1.70
68127;BMP180;54931;52.098;21.006;2024-01-15T12:03:17;97587.60;;;1.70
68127;BMP180;54931;52.098;21.006;2024-01-15T12:05:48;97587.40;;;1.70
68127;BMP180;54931;52.098;21.006;2024-01-15T12:08:22;97585.20;;;1.60
68127;BMP180;54931;52.098;21.006;2024-01-15T12:10:50;97588.40;;;1.50
68127;BMP180;54931;52.098;21.006;2024-01-15T12:13:17;97590.00;;;1.38
68127;BMP180;54931;52.098;21.006;2024-01-15T12:15:47;97582.60;;;1.30
68127;BMP180;54931;52.098;21.006;2024-01-15T12:18:17;97584.00;;;1.30
68127;BMP180;54931;52.098;21.006;2024-01-15T12:20:46;97591.60;;;1.20
68127;BMP180;54931;52.098;21.006;2024-01-15T12:23:17;97584.40;;;1.18
68127;BMP180;54931;52.098;21.006;2024-01-15T12:25:45;97583.00;;;1.10
68127;BMP180;54931;52.098;21.006;2024-01-15T12:28:14;97579.60;;;1.10
68127;BMP180;54931;52.098;21.006;2024-01-15T12:30:42;97580.20;;;1.14
68127;BMP180;54931;52.098;21.006;2024-01-15T12:33:10;97579.60;;;1.10
68127;BMP180;54931;52.098;21.006;2024-01-15T12:35:38;97579.60;;;1.10
68127;BMP180;54931;52.098;21.006;2024-01-15T12:38:07;97579.40;;;1.04
68127;BMP180;54931;52.098;21.006;2024-01-15T12:40:35;97573.40;;;1.10
68127;BMP180;54931;52.098;21.006;2024-01-15T12:43:06;97569.20;;;1.10
68127;BMP180;54931;52.098;21.006;2024-01-15T12:45:34;97582.00;;;1.02
68127;BMP180;54931;52.098;21.006;2024-01-15T12:48:05;97563.80;;;1.00
68127;BMP180;54931;52.098;21.006;2024-01-15T12:50:34;97571.80;;;0.90
68127;BMP180;54931;52.098;21.006;2024-01-15T12:53:03;97574.00;;;0.92
68127;BMP180;54931;52.098;21.006;2024-01-15T12:55:31;97569.60;;;0.94
68127;BMP180;54931;52.098;21.006;2024-01-15T12:57:59;97572.60;;;0.92
68127;BMP180;54931;52.098;21.006;2024-01-15T13:00:27;97575.80;;;0.90
68127;BMP180;54931;52.098;21.006;2024-01-15T13:02:54;97582.20;;;0.90
68127;BMP180;54931;52.098;21.006;2024-01-15T13:05:26;97583.40;;;0.76
68127;BMP180;54931;52.098;21.006;2024-01-15T13:07:54;97581.20;;;0.70
68127;BMP180;54931;52.098;21.006;2024-01-15T13:10:22;97580.00;;;0.50
68127;BMP180;54931;52.098;21.006;2024-01-15T13:12:50;97574.40;;;0.38
68127;BMP180;54931;52.098;21.006;2024-01-15T13:15:18;97583.60;;;0.30
68127;BMP180;54931;52.098;21.006;2024-01-15T13:17:46;97582.60;;;0.30
68127;BMP180;54931;52.098;21.006;2024-01-15T13:20:14;97581.40;;;0.20
68127;BMP180;54931;52.098;21.006;2024-01-15T13:22:42;97573.20;;;0.20
68127;BMP180;54931;52.098;21.006;2024-01-15T13:25:11;97586.80;;;0.20
68127;BMP180;54931;52.098;21.006;2024-01-15T13:27:39;97581.00;;;0.20
68127;BMP180;54931;52.098;21.006;2024-01-15T13:30:12;97585.00;;;0.20
68127;BMP180;54931;52.098;21.006;2024-01-15T13:32:40;97576.60;;;0.26
68127;BMP180;54931;52.098;21.006;2024-01-15T13:35:08;97575.60;;;0.24
68127;BMP180;54931;52.098;21.006;2024-01-15T13:37:37;97575.40;;;0.22
68127;BMP180;54931;52.098;21.006;2024-01-15T13:40:06;97577.40;;;0.30
68127;BMP180;54931;52.098;21.006;2024-01-15T13:42:36;97574.00;;;0.30
68127;BMP180;54931;52.098;21.006;2024-01-15T13:45:08;97581.20;;;0.30
68127;BMP180;54931;52.098;21.006;2024-01-15T13:47:36;97579.40;;;0.30
68127;BMP180;54931;52.098;21.006;2024-01-15T13:50:06;97575.80;;;0.30
68127;BMP180;54931;52.098;21.006;2024-01-15T13:52:35;97583.20;;;0.30
68127;BMP180;54931;52.098;21.006;2024-01-15T13:55:03;97588.40;;;0.30
68127;BMP180;54931;52.098;21.006;2024-01-15T13:57:31;97583.20;;;0.20
68127;BMP180;54931;52.098;21.006;2024-01-15T13:59:58;97588.60;;;0.20
68127;BMP180;54931;52.098;21.006;2024-01-15T14:02:26;97587.80;;;0.16
68127;BMP180;54931;52.098;21.006;2024-01-15T14:04:53;97586.40;;;0.16
68127;BMP180;54931;52.098;21.006;2024-01-15T14:07:21;97585.20;;;0.20
68127;BMP180;54931;52.098;21.006;2024-01-15T14:09:49;97585.20;;;0.12
68127;BMP180;54931;52.098;21.006;2024-01-15T14:12:17;97595.20;;;0.12
68127;BMP180;54931;52.098;21.006;2024-01-15T14:14:45;97590.60;;;0.10
68127;BMP180;54931;52.098;21.006;2024-01-15T14:17:13;97597.40;;;0.10
68127;BMP180;54931;52.098;21.006;2024-01-15T14:19:41;97596.40;;;0.10
68127;BMP180;54931;52.098;21.006;2024-01-15T14:22:08;97587.20;;;0.00
68127;BMP180;54931;52.098;21.006;2024-01-15T14:24:36;97593.20;;;0.00